Airfield :
LOGIN :

Register | Disclaimer

   EN    FR    IT 

 










Legend :    VFR   Marginal VFR   IFR   Intensive IFR   Very Intensive IFR
Visi :
Ceiling :
>= 8 km
>= 3000ft
5 to 8 km
1000 to 3000 ft
1500m to 5 km
500 to 1000 ft
800 to 1500m
200 to 500 ft
< 800m
< 200 ft
Symbols :   Thunderstorms  Fog  Heavy snow  Heavy precipitations  Wind > 20 kt
SIGMETs :     Misc.  Thunderstorms  Icing  Turbulence  Mountain Waves  Volcanic Ashes







- Airport Elevation : 256 ft
- IATA code : CFR
- Download approach charts


LFRK - Caen

CURRENT METAR :
  • 220830Z AUTO 18007KT 9999 ///TCU 13/10 Q1022 TEMPO RA BECMG SCT040

EXPIRED METARs :
  • 220800Z AUTO 18008KT 9999 -RA ///TCU 12/10 Q1022 TEMPO RA BECMG BKN040
  • 220730Z AUTO 18005KT 9999 -RA ///TCU 12/10 Q1022 TEMPO RA BECMG BKN040
  • 220700Z AUTO 16005KT 9999 -RA FEW048/// SCT092/// OVC110/// ///TCU 12/10 Q1022 BECMG BKN040
  • 220630Z AUTO 17005KT 9999 -RA ///TCU 12/09 Q1022 BECMG BKN040
  • 220600Z AUTO 18006KT 9999 ///TCU 12/09 Q1022 BECMG BKN040

TAF TAF LFRK
Valid from the 22 at 09:00 until the 22 at 18:00 UTC


220800Z 2209/2218 20008KT 9999 SCT040
TEMPO 2209/2218 5000 RA
BECMG 2212/2214 14010KT
BECMG 2216/2218 20015G30KT BKN015
Met : +33 2 31 26 68 11
No reported NOTAMs for that airfield.
1 SIGMET reported for the Brest FIR (LFRR) :
 
Severe icing
LFRR SIGMET 1 VALID 220630/221000 LFPW
LFRR BREST FIR/UIR SEV ICE FCST WI N4930 W00445 - N5000 W00200 - N5000 W00015 - N4845 W00015 - N4900 W00400 - N4930 W00445 FL080/200 MOV E 35KT NC=



MET'MAP, your aeronautical weather chart ! - Copyright ORBIFLY December 2007 - Disclaimer

ORBIFLY MET'MAP TEAM :

Programming & Development : Alexandra Zaïnal
Concept & Development : Baudouin d'Aumeries
Co-Development & Prog : Marc-Olivier Méhu
Technical & hardware support : Manuel Goepfert

Contact : metmap@orbifly.com




SOURCES & CREDITS :

   NOAA